createdAt,value
2024-02-11T00:00:17.798Z,95.40
2024-02-11T00:02:44.325Z,95.71
2024-02-11T00:05:11.687Z,95.91
2024-02-11T00:07:43.926Z,95.81
2024-02-11T00:10:10.770Z,96.03
2024-02-11T00:12:39.881Z,95.91
2024-02-11T00:15:08.452Z,95.89
2024-02-11T00:17:38.646Z,95.89
2024-02-11T00:20:17.452Z,95.85
2024-02-11T00:22:45.816Z,96.12
2024-02-11T00:25:13.223Z,96.16
2024-02-11T00:27:40.745Z,96.32
2024-02-11T00:30:07.936Z,96.35
2024-02-11T00:32:34.713Z,95.66
2024-02-11T00:35:01.674Z,96.53
2024-02-11T00:37:30.823Z,96.56
2024-02-11T00:39:58.259Z,96.27
2024-02-11T00:42:29.095Z,96.25
2024-02-11T00:44:56.049Z,96.35
2024-02-11T00:47:23.449Z,96.66
2024-02-11T00:49:50.185Z,96.21
2024-02-11T00:52:16.928Z,96.74
2024-02-11T00:54:44.030Z,96.29
2024-02-11T00:57:10.605Z,96.64
2024-02-11T00:59:37.183Z,95.84
2024-02-11T01:02:04.450Z,96.40
2024-02-11T01:04:31.542Z,96.35
2024-02-11T01:06:59.171Z,96.28
2024-02-11T01:09:26.656Z,96.14
2024-02-11T01:11:53.327Z,96.35
2024-02-11T01:14:20.076Z,96.31
2024-02-11T01:16:46.639Z,96.30
2024-02-11T01:19:13.275Z,96.14
2024-02-11T01:21:39.763Z,96.07
2024-02-11T01:24:06.515Z,96.09
2024-02-11T01:26:37.875Z,96.25
2024-02-11T01:29:07.519Z,96.43
2024-02-11T01:31:35.931Z,96.47
2024-02-11T01:34:04.835Z,96.27
2024-02-11T01:36:31.504Z,96.64
2024-02-11T01:38:58.028Z,96.54
2024-02-11T01:41:24.781Z,96.42
2024-02-11T01:43:51.380Z,96.29
2024-02-11T01:46:17.935Z,96.36
2024-02-11T01:48:44.685Z,96.03
2024-02-11T01:51:11.359Z,96.67
2024-02-11T01:53:38.683Z,96.50
2024-02-11T01:56:06.452Z,96.61
2024-02-11T01:58:33.640Z,96.78
2024-02-11T02:01:00.982Z,96.70
2024-02-11T02:03:27.571Z,97.10
2024-02-11T02:05:55.894Z,97.36
2024-02-11T02:08:22.788Z,97.00
2024-02-11T02:10:49.484Z,97.31
2024-02-11T02:13:16.022Z,96.94
2024-02-11T02:15:42.540Z,96.81
2024-02-11T02:18:09.763Z,96.89
2024-02-11T02:20:36.518Z,97.13
2024-02-11T02:23:03.159Z,96.65
2024-02-11T02:25:31.366Z,97.03
2024-02-11T02:27:57.965Z,97.33
2024-02-11T02:30:24.571Z,96.82
2024-02-11T02:32:51.072Z,97.16
2024-02-11T02:35:22.796Z,97.41
2024-02-11T02:37:53.434Z,96.91
2024-02-11T02:40:25.908Z,97.59
2024-02-11T02:42:52.594Z,96.95
2024-02-11T02:45:19.236Z,97.60
2024-02-11T02:47:48.090Z,97.90
2024-02-11T02:50:18.595Z,97.64
2024-02-11T02:52:45.503Z,97.53
2024-02-11T02:55:12.084Z,97.01
2024-02-11T02:57:38.649Z,97.44
2024-02-11T03:00:06.906Z,97.05
2024-02-11T03:02:35.850Z,96.70
2024-02-11T03:05:03.530Z,97.21
2024-02-11T03:07:30.285Z,97.05
2024-02-11T03:09:57.368Z,96.89
2024-02-11T03:12:23.906Z,97.46
2024-02-11T03:14:51.652Z,97.21
2024-02-11T03:17:18.239Z,97.57
2024-02-11T03:19:45.113Z,97.04
2024-02-11T03:22:14.276Z,97.67
2024-02-11T03:24:41.145Z,97.45
2024-02-11T03:27:08.249Z,97.58
2024-02-11T03:29:34.877Z,97.74
2024-02-11T03:32:01.501Z,97.58
2024-02-11T03:34:28.135Z,97.30
2024-02-11T03:36:55.756Z,97.48
2024-02-11T03:39:23.144Z,97.28
2024-02-11T03:41:50.388Z,97.36
2024-02-11T03:44:18.297Z,96.94
2024-02-11T03:46:44.961Z,96.46
2024-02-11T03:49:11.591Z,96.74
2024-02-11T03:51:38.181Z,96.14
2024-02-11T03:54:04.784Z,96.07
2024-02-11T03:56:31.393Z,95.87
2024-02-11T03:58:58.099Z,96.32
2024-02-11T04:01:25.320Z,96.22
2024-02-11T04:03:51.956Z,96.72
2024-02-11T04:06:21.979Z,96.41
2024-02-11T04:08:50.990Z,95.93
2024-02-11T04:11:19.411Z,95.72
2024-02-11T04:13:46.307Z,96.14
2024-02-11T04:16:16.779Z,95.85
2024-02-11T04:18:46.621Z,96.32
2024-02-11T04:21:13.452Z,96.46
2024-02-11T04:23:40.100Z,96.70
2024-02-11T04:26:09.444Z,96.65
2024-02-11T04:28:38.703Z,96.78
2024-02-11T04:31:05.327Z,96.51
2024-02-11T04:33:31.996Z,96.60
2024-02-11T04:36:02.104Z,96.68
2024-02-11T04:38:28.858Z,96.62
2024-02-11T04:40:56.321Z,96.96
2024-02-11T04:43:23.270Z,96.67
2024-02-11T04:45:49.860Z,96.26
2024-02-11T04:48:22.476Z,96.20
2024-02-11T04:50:49.331Z,95.71
2024-02-11T04:53:19.227Z,95.92
2024-02-11T04:55:49.533Z,95.71
2024-02-11T04:58:17.562Z,95.31
2024-02-11T05:00:47.253Z,95.69
2024-02-11T05:03:18.749Z,95.96
2024-02-11T05:05:46.596Z,95.58
2024-02-11T05:08:17.684Z,95.63
2024-02-11T05:10:45.674Z,95.44
2024-02-11T05:13:13.952Z,95.61
2024-02-11T05:15:42.037Z,95.51
2024-02-11T05:18:11.049Z,95.48
2024-02-11T05:20:41.350Z,95.43
2024-02-11T05:23:10.419Z,95.15
2024-02-11T05:25:41.086Z,95.33
2024-02-11T05:28:14.317Z,94.82
2024-02-11T05:30:49.407Z,94.81
2024-02-11T05:33:17.996Z,94.75
2024-02-11T05:35:45.110Z,94.69
2024-02-11T05:38:12.770Z,94.25
2024-02-11T05:40:42.636Z,94.55
2024-02-11T05:43:10.333Z,93.40
2024-02-11T05:45:41.260Z,93.24
2024-02-11T05:48:09.151Z,93.60
2024-02-11T05:50:35.773Z,93.51
2024-02-11T05:53:02.732Z,93.28
2024-02-11T05:55:29.326Z,93.48
2024-02-11T05:57:55.953Z,93.66
2024-02-11T06:00:26.918Z,93.71
2024-02-11T06:02:57.881Z,94.16
2024-02-11T06:05:26.077Z,94.29
2024-02-11T06:07:56.272Z,93.60
2024-02-11T06:10:27.375Z,93.83
2024-02-11T06:12:55.050Z,93.61
2024-02-11T06:15:22.294Z,93.29
2024-02-11T06:17:49.880Z,93.02
2024-02-11T06:20:19.339Z,92.91
2024-02-11T06:22:47.641Z,93.21
2024-02-11T06:25:15.130Z,92.76
2024-02-11T06:27:42.079Z,92.00
2024-02-11T06:30:13.537Z,91.87
2024-02-11T06:32:45.334Z,91.70
2024-02-11T06:35:12.028Z,91.79
2024-02-11T06:37:42.873Z,91.63
2024-02-11T06:40:14.489Z,91.60
2024-02-11T06:42:43.733Z,91.70
2024-02-11T06:45:13.655Z,91.87
2024-02-11T06:47:40.884Z,91.60
2024-02-11T06:50:09.847Z,92.08
2024-02-11T06:52:36.875Z,92.13
2024-02-11T06:55:04.201Z,92.27
2024-02-11T06:57:33.424Z,91.89
2024-02-11T07:00:00.410Z,92.14
2024-02-11T07:02:29.609Z,91.87
2024-02-11T07:04:57.122Z,92.42
2024-02-11T07:07:25.687Z,92.35
2024-02-11T07:09:52.514Z,92.24
2024-02-11T07:12:20.867Z,92.25
2024-02-11T07:14:48.071Z,92.34
2024-02-11T07:17:16.107Z,92.37
2024-02-11T07:19:42.987Z,91.61
2024-02-11T07:22:09.734Z,91.53
2024-02-11T07:24:40.617Z,91.52
2024-02-11T07:27:16.548Z,91.57
2024-02-11T07:29:44.137Z,91.10
2024-02-11T07:32:15.043Z,91.03
2024-02-11T07:34:42.667Z,91.13
2024-02-11T07:37:09.541Z,90.91
2024-02-11T07:39:36.067Z,90.85
2024-02-11T07:42:02.774Z,91.20
2024-02-11T07:44:29.504Z,91.30
2024-02-11T07:46:56.562Z,90.97
2024-02-11T07:49:24.280Z,90.96
2024-02-11T07:51:52.416Z,90.58
2024-02-11T07:54:20.384Z,90.74
2024-02-11T07:56:47.268Z,90.65
2024-02-11T07:59:14.019Z,91.27
2024-02-11T08:01:40.863Z,90.77
2024-02-11T08:04:07.845Z,90.75
2024-02-11T08:06:35.595Z,90.54
2024-02-11T08:09:03.187Z,90.64
2024-02-11T08:11:31.581Z,91.13
2024-02-11T08:13:58.847Z,90.78
2024-02-11T08:16:27.068Z,90.60
2024-02-11T08:18:55.856Z,90.75
2024-02-11T08:21:22.781Z,90.89
2024-02-11T08:23:49.566Z,91.25
2024-02-11T08:26:16.799Z,91.42
2024-02-11T08:28:43.424Z,91.86
2024-02-11T08:31:10.457Z,91.99
2024-02-11T08:33:37.389Z,92.05
2024-02-11T08:36:04.171Z,92.17
2024-02-11T08:38:32.339Z,92.42
2024-02-11T08:40:59.310Z,92.05
2024-02-11T08:43:26.866Z,91.78
2024-02-11T08:45:54.151Z,92.10
2024-02-11T08:48:21.697Z,92.09
2024-02-11T08:50:51.576Z,91.53
2024-02-11T08:53:20.158Z,91.70
2024-02-11T08:55:46.892Z,91.71
2024-02-11T08:58:18.364Z,91.18
2024-02-11T09:00:45.210Z,91.11
2024-02-11T09:03:12.326Z,91.14
2024-02-11T09:05:38.890Z,90.42
2024-02-11T09:08:05.887Z,89.90
2024-02-11T09:10:32.514Z,90.68
2024-02-11T09:12:59.269Z,90.26
2024-02-11T09:15:25.985Z,90.17
2024-02-11T09:17:52.593Z,90.10
2024-02-11T09:20:20.047Z,89.88
2024-02-11T09:22:47.233Z,90.08
2024-02-11T09:25:15.547Z,90.42
2024-02-11T09:27:43.829Z,89.60
2024-02-11T09:30:16.492Z,89.64
2024-02-11T09:32:43.289Z,89.90
2024-02-11T09:35:10.970Z,89.22
2024-02-11T09:37:37.715Z,89.42
2024-02-11T09:40:04.676Z,88.75
2024-02-11T09:42:31.825Z,88.93
2024-02-11T09:45:00.031Z,88.74
2024-02-11T09:47:26.847Z,88.41
2024-02-11T09:49:54.977Z,88.63
2024-02-11T09:52:21.715Z,89.23
2024-02-11T09:54:49.221Z,88.58
2024-02-11T09:57:15.776Z,88.06
2024-02-11T09:59:42.323Z,88.35
2024-02-11T10:02:19.589Z,88.47
2024-02-11T10:04:47.784Z,88.95
2024-02-11T10:07:25.041Z,88.20
2024-02-11T10:09:52.065Z,89.01
2024-02-11T10:12:20.131Z,88.20
2024-02-11T10:14:57.510Z,88.84
2024-02-11T10:17:24.753Z,88.39
2024-02-11T10:19:55.056Z,87.86
2024-02-11T10:22:28.598Z,87.64
2024-02-11T10:24:57.725Z,88.22
2024-02-11T10:27:25.205Z,88.37
2024-02-11T10:29:51.977Z,88.94
2024-02-11T10:32:19.041Z,88.15
2024-02-11T10:34:47.019Z,87.93
2024-02-11T10:37:16.524Z,88.15
2024-02-11T10:39:43.848Z,88.14
2024-02-11T10:42:12.839Z,88.03
2024-02-11T10:44:39.703Z,88.13
2024-02-11T10:47:09.745Z,88.18
2024-02-11T10:49:36.615Z,87.57
2024-02-11T10:52:07.190Z,86.95
2024-02-11T10:54:43.401Z,87.35
2024-02-11T10:57:15.395Z,87.57
2024-02-11T10:59:53.217Z,87.08
2024-02-11T11:02:20.760Z,86.99
2024-02-11T11:04:47.729Z,87.29
2024-02-11T11:07:16.417Z,86.89
2024-02-11T11:09:46.383Z,87.31
2024-02-11T11:12:16.489Z,87.40
2024-02-11T11:14:44.774Z,87.71
2024-02-11T11:17:21.625Z,87.70
2024-02-11T11:19:53.358Z,87.89
2024-02-11T11:22:29.791Z,87.41
2024-02-11T11:24:57.023Z,88.27
2024-02-11T11:27:24.884Z,87.75
2024-02-11T11:29:53.904Z,87.48
2024-02-11T11:32:25.036Z,87.31
2024-02-11T11:34:52.501Z,87.37
2024-02-11T11:37:19.418Z,87.55
2024-02-11T11:39:46.693Z,87.33
2024-02-11T11:42:13.842Z,87.16
2024-02-11T11:44:40.497Z,87.63
2024-02-11T11:47:07.328Z,87.51
2024-02-11T11:49:35.529Z,87.09
2024-02-11T11:52:02.359Z,86.72
2024-02-11T11:54:29.548Z,86.77
2024-02-11T11:57:00.761Z,87.11
2024-02-11T11:59:28.132Z,88.03
2024-02-11T12:01:57.037Z,87.51
2024-02-11T12:04:23.982Z,87.18
2024-02-11T12:06:51.013Z,87.39
2024-02-11T12:09:17.597Z,88.15
2024-02-11T12:11:49.778Z,87.36
2024-02-11T12:14:16.710Z,87.47
2024-02-11T12:16:44.073Z,87.57
2024-02-11T12:19:11.889Z,88.01
2024-02-11T12:21:38.464Z,87.80
2024-02-11T12:24:12.516Z,88.25
2024-02-11T12:26:39.248Z,88.33
2024-02-11T12:29:05.914Z,87.28
2024-02-11T12:31:34.596Z,86.87
2024-02-11T12:34:02.573Z,87.19
2024-02-11T12:36:29.616Z,86.98
2024-02-11T12:38:57.710Z,87.72
2024-02-11T12:41:25.758Z,87.68
2024-02-11T12:43:53.900Z,87.44
2024-02-11T12:46:20.754Z,86.73
2024-02-11T12:48:48.025Z,87.79
2024-02-11T12:51:15.806Z,88.31
2024-02-11T12:53:43.203Z,88.41
2024-02-11T12:56:13.213Z,88.21
2024-02-11T12:58:40.908Z,89.17
2024-02-11T13:01:11.858Z,88.11
2024-02-11T13:03:43.048Z,88.27
2024-02-11T13:06:10.377Z,88.07
2024-02-11T13:08:37.730Z,88.19
2024-02-11T13:11:07.151Z,88.38
2024-02-11T13:13:35.389Z,88.46
2024-02-11T13:16:02.170Z,88.58
2024-02-11T13:18:29.469Z,88.38
2024-02-11T13:20:57.882Z,88.22
2024-02-11T13:23:24.892Z,88.52
2024-02-11T13:25:53.145Z,88.11
2024-02-11T13:28:21.070Z,87.75
2024-02-11T13:30:48.629Z,87.60
2024-02-11T13:33:15.938Z,87.70
2024-02-11T13:35:43.651Z,88.06
2024-02-11T13:38:10.390Z,87.57
2024-02-11T13:40:38.305Z,87.84
2024-02-11T13:43:05.013Z,87.03
2024-02-11T13:45:32.093Z,87.24
2024-02-11T13:48:01.168Z,86.70
2024-02-11T13:50:30.903Z,86.29
2024-02-11T13:52:58.402Z,85.34
2024-02-11T13:55:25.056Z,85.92
2024-02-11T13:57:52.168Z,84.68
2024-02-11T14:00:19.720Z,84.26
2024-02-11T14:02:46.498Z,84.53
2024-02-11T14:05:13.485Z,83.95
2024-02-11T14:07:40.935Z,84.59
2024-02-11T14:10:08.070Z,84.92
2024-02-11T14:12:38.985Z,84.56
2024-02-11T14:15:10.948Z,84.25
2024-02-11T14:17:43.289Z,85.18
2024-02-11T14:20:12.456Z,85.02
2024-02-11T14:22:43.778Z,84.60
2024-02-11T14:25:18.530Z,84.34
2024-02-11T14:27:49.395Z,85.07
2024-02-11T14:30:18.169Z,83.73
2024-02-11T14:32:46.063Z,83.82
2024-02-11T14:35:14.046Z,83.71
2024-02-11T14:37:42.593Z,83.73
2024-02-11T14:40:16.681Z,84.06
2024-02-11T14:42:46.380Z,83.58
2024-02-11T14:45:14.170Z,83.75
2024-02-11T14:47:40.895Z,83.59
2024-02-11T14:50:10.271Z,84.37
2024-02-11T14:52:37.627Z,84.57
2024-02-11T14:55:05.009Z,84.10
2024-02-11T14:57:32.567Z,84.46
2024-02-11T14:59:59.305Z,84.22
2024-02-11T15:02:28.698Z,84.46
2024-02-11T15:04:58.668Z,84.88
2024-02-11T15:07:26.888Z,84.36
2024-02-11T15:09:56.443Z,84.66
2024-02-11T15:12:24.736Z,84.22
2024-02-11T15:14:51.634Z,84.71
2024-02-11T15:17:19.195Z,84.85
2024-02-11T15:19:47.222Z,84.40
2024-02-11T15:22:14.853Z,84.75
2024-02-11T15:24:43.050Z,84.04
2024-02-11T15:27:09.970Z,84.60
2024-02-11T15:29:36.535Z,84.79
2024-02-11T15:32:04.210Z,84.57
2024-02-11T15:34:31.000Z,84.33
2024-02-11T15:36:57.949Z,84.63
2024-02-11T15:39:25.187Z,84.82
2024-02-11T15:41:54.975Z,84.58
2024-02-11T15:44:22.214Z,84.76
2024-02-11T15:46:49.590Z,84.40
2024-02-11T15:49:16.350Z,84.89
2024-02-11T15:51:48.180Z,84.93
2024-02-11T15:54:16.134Z,85.59
2024-02-11T15:56:43.521Z,86.06
2024-02-11T15:59:10.753Z,85.82
2024-02-11T16:01:37.435Z,86.21
2024-02-11T16:04:05.746Z,85.79
2024-02-11T16:06:33.339Z,85.60
2024-02-11T16:08:59.970Z,85.48
2024-02-11T16:11:26.838Z,84.76
2024-02-11T16:13:53.550Z,84.28
2024-02-11T16:16:20.270Z,85.33
2024-02-11T16:18:47.136Z,85.51
2024-02-11T16:21:15.257Z,85.50
2024-02-11T16:23:48.410Z,85.78
2024-02-11T16:26:17.165Z,85.94
2024-02-11T16:28:45.041Z,86.18
2024-02-11T16:31:14.217Z,85.75
2024-02-11T16:33:41.198Z,86.19
2024-02-11T16:36:08.509Z,86.29
2024-02-11T16:38:35.415Z,86.51
2024-02-11T16:41:02.154Z,86.75
2024-02-11T16:43:28.765Z,87.02
2024-02-11T16:45:55.281Z,86.70
2024-02-11T16:48:24.013Z,87.24
2024-02-11T16:50:50.806Z,87.45
2024-02-11T16:53:17.498Z,87.12
2024-02-11T16:55:44.280Z,87.33
2024-02-11T16:58:10.965Z,87.33
2024-02-11T17:00:37.607Z,87.62
2024-02-11T17:03:05.943Z,87.17
2024-02-11T17:05:32.816Z,87.57
2024-02-11T17:07:59.667Z,87.90
2024-02-11T17:10:26.296Z,87.85
2024-02-11T17:12:52.869Z,87.88
2024-02-11T17:15:19.497Z,88.16
2024-02-11T17:17:46.208Z,88.51
2024-02-11T17:20:17.338Z,88.27
2024-02-11T17:22:45.078Z,88.58
2024-02-11T17:25:11.832Z,89.11
2024-02-11T17:27:39.205Z,89.57
2024-02-11T17:30:07.632Z,89.35
2024-02-11T17:32:42.372Z,89.55
2024-02-11T17:35:14.025Z,90.21
2024-02-11T17:37:40.696Z,89.98
2024-02-11T17:40:11.538Z,89.78
2024-02-11T17:42:41.391Z,90.26
2024-02-11T17:45:12.873Z,90.29
2024-02-11T17:47:40.075Z,90.42
2024-02-11T17:50:12.201Z,90.08
2024-02-11T17:52:42.370Z,89.92
2024-02-11T17:55:10.098Z,90.07
2024-02-11T17:57:42.201Z,90.48
2024-02-11T18:00:09.872Z,90.85
2024-02-11T18:02:39.919Z,91.05
2024-02-11T18:05:13.870Z,90.64
2024-02-11T18:07:44.479Z,90.88
2024-02-11T18:10:11.482Z,91.28
2024-02-11T18:12:38.360Z,91.31
2024-02-11T18:15:06.649Z,91.35
2024-02-11T18:17:33.454Z,91.66
2024-02-11T18:20:00.398Z,91.89
2024-02-11T18:22:26.928Z,92.11
2024-02-11T18:24:53.466Z,92.36
2024-02-11T18:27:20.047Z,92.00
2024-02-11T18:29:46.846Z,92.17
2024-02-11T18:32:13.426Z,92.57
2024-02-11T18:34:40.241Z,92.74
2024-02-11T18:37:06.870Z,92.17
2024-02-11T18:39:33.448Z,92.60
2024-02-11T18:42:00.241Z,92.61
2024-02-11T18:44:27.860Z,92.75
2024-02-11T18:46:54.489Z,92.76
2024-02-11T18:49:21.159Z,92.69
2024-02-11T18:51:47.665Z,92.56
2024-02-11T18:54:14.255Z,92.90
2024-02-11T18:56:40.856Z,92.74
2024-02-11T18:59:09.016Z,92.67
2024-02-11T19:01:36.992Z,92.66
2024-02-11T19:04:03.586Z,92.63
2024-02-11T19:06:33.814Z,92.76
2024-02-11T19:09:01.897Z,92.34
2024-02-11T19:11:28.657Z,92.21
2024-02-11T19:13:55.476Z,92.81
2024-02-11T19:16:22.109Z,92.53
2024-02-11T19:18:48.854Z,92.13
2024-02-11T19:21:16.525Z,92.09
2024-02-11T19:23:47.156Z,92.55
2024-02-11T19:26:16.797Z,92.39
2024-02-11T19:28:44.171Z,92.50
2024-02-11T19:31:13.197Z,92.76
2024-02-11T19:33:40.221Z,92.25
2024-02-11T19:36:07.751Z,92.88
2024-02-11T19:38:37.757Z,92.50
2024-02-11T19:41:06.006Z,92.50
2024-02-11T19:43:34.208Z,92.43
2024-02-11T19:46:03.646Z,92.91
2024-02-11T19:48:32.632Z,93.42
2024-02-11T19:50:59.923Z,93.23
2024-02-11T19:53:35.088Z,94.04
2024-02-11T19:56:13.539Z,93.78
2024-02-11T19:58:40.803Z,94.01
2024-02-11T20:01:08.159Z,93.99
2024-02-11T20:03:37.638Z,94.34
2024-02-11T20:06:07.055Z,94.27
2024-02-11T20:08:35.423Z,94.40
2024-02-11T20:11:05.926Z,94.34
2024-02-11T20:13:34.297Z,94.18
2024-02-11T20:16:04.058Z,94.21
2024-02-11T20:18:30.707Z,94.33
2024-02-11T20:20:58.386Z,94.48
2024-02-11T20:23:25.357Z,94.18
2024-02-11T20:25:52.003Z,94.37
2024-02-11T20:28:19.265Z,94.38
2024-02-11T20:30:45.882Z,94.25
2024-02-11T20:33:14.630Z,94.17
2024-02-11T20:35:42.407Z,94.04
2024-02-11T20:38:16.263Z,93.76
2024-02-11T20:40:43.487Z,93.89
2024-02-11T20:43:10.525Z,94.06
2024-02-11T20:45:45.042Z,93.81
2024-02-11T20:48:13.201Z,94.07
2024-02-11T20:50:40.558Z,93.77
2024-02-11T20:53:09.672Z,94.07
2024-02-11T20:55:38.603Z,93.95
2024-02-11T20:58:05.849Z,93.95
2024-02-11T21:00:36.333Z,93.77
2024-02-11T21:03:08.964Z,93.73
2024-02-11T21:05:36.822Z,93.91
2024-02-11T21:08:04.574Z,94.22
2024-02-11T21:10:34.081Z,94.10
2024-02-11T21:13:01.361Z,93.82
2024-02-11T21:15:28.034Z,94.18
2024-02-11T21:17:56.799Z,93.95
2024-02-11T21:20:29.099Z,94.35
2024-02-11T21:22:56.445Z,93.88
2024-02-11T21:25:24.314Z,94.00
2024-02-11T21:27:57.617Z,93.90
2024-02-11T21:30:26.436Z,94.16
2024-02-11T21:32:53.427Z,94.37
2024-02-11T21:35:20.469Z,94.37
2024-02-11T21:37:49.061Z,94.14
2024-02-11T21:40:15.920Z,94.31
2024-02-11T21:42:43.359Z,94.09
2024-02-11T21:45:13.779Z,94.05
2024-02-11T21:47:41.913Z,94.00
2024-02-11T21:50:13.930Z,94.15
2024-02-11T21:52:41.259Z,94.09
2024-02-11T21:55:10.753Z,93.67
2024-02-11T21:57:38.779Z,93.55
2024-02-11T22:00:15.491Z,93.16
2024-02-11T22:02:51.503Z,93.56
2024-02-11T22:05:20.161Z,93.48
2024-02-11T22:07:46.925Z,93.90
2024-02-11T22:10:13.628Z,93.60
2024-02-11T22:12:42.128Z,93.88
2024-02-11T22:15:09.362Z,93.86
2024-02-11T22:17:37.287Z,93.39
2024-02-11T22:20:05.323Z,93.69
2024-02-11T22:22:32.305Z,93.91
2024-02-11T22:25:01.160Z,94.32
2024-02-11T22:27:31.106Z,94.27
2024-02-11T22:30:01.231Z,93.91
2024-02-11T22:32:28.357Z,93.96
2024-02-11T22:34:57.996Z,93.88
2024-02-11T22:37:24.969Z,94.60
2024-02-11T22:39:51.794Z,94.62
2024-02-11T22:42:19.652Z,93.76
2024-02-11T22:44:47.091Z,93.91
2024-02-11T22:47:17.463Z,94.55
2024-02-11T22:49:49.490Z,94.40
2024-02-11T22:52:16.319Z,94.50
2024-02-11T22:54:42.876Z,94.57
2024-02-11T22:57:10.011Z,94.57
2024-02-11T22:59:37.095Z,95.17
2024-02-11T23:02:06.292Z,94.73
2024-02-11T23:04:34.065Z,95.30
2024-02-11T23:07:00.680Z,94.81
2024-02-11T23:09:30.262Z,94.91
2024-02-11T23:12:01.474Z,94.94
2024-02-11T23:14:29.684Z,95.37
2024-02-11T23:16:57.226Z,96.01
2024-02-11T23:19:28.845Z,96.18
2024-02-11T23:21:56.689Z,95.64
2024-02-11T23:24:26.904Z,95.95
2024-02-11T23:26:55.209Z,95.95
2024-02-11T23:29:24.578Z,95.64
2024-02-11T23:31:52.462Z,95.48
2024-02-11T23:34:23.233Z,95.47
2024-02-11T23:36:50.229Z,95.77
2024-02-11T23:39:23.872Z,95.30
2024-02-11T23:41:50.573Z,95.66
2024-02-11T23:44:18.824Z,95.48
2024-02-11T23:46:48.530Z,95.59
2024-02-11T23:49:21.812Z,95.87
2024-02-11T23:51:49.003Z,95.93
2024-02-11T23:54:17.571Z,95.46
2024-02-11T23:56:45.067Z,95.88
2024-02-11T23:59:12.738Z,95.84
